createdAt,value
2023-11-23T00:01:58.144Z,36
2023-11-23T00:04:03.753Z,36.03
2023-11-23T00:06:09.346Z,36.1
2023-11-23T00:08:14.797Z,35.77
2023-11-23T00:10:20.360Z,35.88
2023-11-23T00:12:25.793Z,35.88
2023-11-23T00:14:31.145Z,35.81
2023-11-23T00:16:36.590Z,35.9
2023-11-23T00:18:42.549Z,35.87
2023-11-23T00:20:48.072Z,35.79
2023-11-23T00:22:53.714Z,35.78
2023-11-23T00:24:59.764Z,35.73
2023-11-23T00:27:05.384Z,35.77
2023-11-23T00:29:10.859Z,36.01
2023-11-23T00:31:16.188Z,36.07
2023-11-23T00:33:21.897Z,36.21
2023-11-23T00:35:27.331Z,36.16
2023-11-23T00:37:32.799Z,36.17
2023-11-23T00:39:38.283Z,36.33
2023-11-23T00:41:43.753Z,36.26
2023-11-23T00:43:49.245Z,36.29
2023-11-23T00:45:54.892Z,36.24
2023-11-23T00:48:00.458Z,36.26
2023-11-23T00:50:05.978Z,36.41
2023-11-23T00:52:11.632Z,36.35
2023-11-23T00:54:17.091Z,36.49
2023-11-23T00:56:22.464Z,36.44
2023-11-23T00:58:27.795Z,36.46
2023-11-23T01:00:33.401Z,36.54
2023-11-23T01:02:39.258Z,36.5
2023-11-23T01:04:45.125Z,36.65
2023-11-23T01:06:50.479Z,36.66
2023-11-23T01:08:55.965Z,36.72
2023-11-23T01:11:01.407Z,36.8
2023-11-23T01:13:06.748Z,36.8
2023-11-23T01:15:12.173Z,36.8
2023-11-23T01:17:17.730Z,37.02
2023-11-23T01:19:23.105Z,37.23
2023-11-23T01:21:28.712Z,37.33
2023-11-23T01:23:34.019Z,37.35
2023-11-23T01:25:39.694Z,37.27
2023-11-23T01:27:45.114Z,37.4
2023-11-23T01:29:50.526Z,37.35
2023-11-23T01:31:56.128Z,37.53
2023-11-23T01:34:01.971Z,37.35
2023-11-23T01:36:07.575Z,37.43
2023-11-23T01:38:13.049Z,37.4
2023-11-23T01:40:18.355Z,37.72
2023-11-23T01:42:24.038Z,37.64
2023-11-23T01:44:29.584Z,37.57
2023-11-23T01:46:35.044Z,37.7
2023-11-23T01:48:40.729Z,37.45
2023-11-23T01:50:46.034Z,37.59
2023-11-23T01:52:51.541Z,37.6
2023-11-23T01:54:57.187Z,37.75
2023-11-23T01:57:02.799Z,37.7
2023-11-23T01:59:08.417Z,37.66
2023-11-23T02:01:14.049Z,37.76
2023-11-23T02:03:19.422Z,37.88
2023-11-23T02:05:53.461Z,37.87
2023-11-23T02:07:58.711Z,37.73
2023-11-23T02:10:04.357Z,37.74
2023-11-23T02:12:09.788Z,37.91
2023-11-23T02:14:15.155Z,37.9
2023-11-23T02:16:20.511Z,38.06
2023-11-23T02:18:26.097Z,38.03
2023-11-23T02:20:31.593Z,38.02
2023-11-23T02:22:36.913Z,38.12
2023-11-23T02:24:42.181Z,38.01
2023-11-23T02:26:47.948Z,38.08
2023-11-23T02:28:53.431Z,38.08
2023-11-23T02:30:59.116Z,38.16
2023-11-23T02:33:04.858Z,38.19
2023-11-23T02:35:10.352Z,38.19
2023-11-23T02:37:15.880Z,38.22
2023-11-23T02:39:21.333Z,38.2
2023-11-23T02:41:26.867Z,38.22
2023-11-23T02:43:32.308Z,38.25
2023-11-23T02:45:37.725Z,38.32
2023-11-23T02:47:43.651Z,38.35
2023-11-23T02:49:49.200Z,38.26
2023-11-23T02:51:54.574Z,38.39
2023-11-23T02:53:59.940Z,38.42
2023-11-23T02:56:05.464Z,38.45
2023-11-23T02:58:10.694Z,38.29
2023-11-23T03:00:16.504Z,38.48
2023-11-23T03:02:22.144Z,38.64
2023-11-23T03:04:27.693Z,38.61
2023-11-23T03:06:33.118Z,38.48
2023-11-23T03:08:38.674Z,38.54
2023-11-23T03:10:44.163Z,38.58
2023-11-23T03:12:49.375Z,38.7
2023-11-23T03:14:54.971Z,38.7
2023-11-23T03:17:00.404Z,38.63
2023-11-23T03:19:06.096Z,38.69
2023-11-23T03:21:11.966Z,38.82
2023-11-23T03:23:17.523Z,38.88
2023-11-23T03:25:22.819Z,38.93
2023-11-23T03:27:28.142Z,38.89
2023-11-23T03:29:33.628Z,38.97
2023-11-23T03:31:39.068Z,39
2023-11-23T03:33:44.742Z,39
2023-11-23T03:35:50.279Z,39.04
2023-11-23T03:37:55.780Z,39.09
2023-11-23T03:40:01.342Z,39.06
2023-11-23T03:42:07.013Z,39.09
2023-11-23T03:44:12.443Z,39.07
2023-11-23T03:46:17.886Z,39.03
2023-11-23T03:48:23.507Z,39.03
2023-11-23T03:50:29.062Z,39.11
2023-11-23T03:52:34.709Z,39.16
2023-11-23T03:54:39.970Z,39.21
2023-11-23T03:56:45.608Z,39.28
2023-11-23T03:58:50.938Z,39.2
2023-11-23T04:00:56.221Z,39.23
2023-11-23T04:03:01.907Z,39.12
2023-11-23T04:05:07.472Z,39.21
2023-11-23T04:07:12.935Z,39.11
2023-11-23T04:09:18.418Z,39.06
2023-11-23T04:11:23.804Z,39.12
2023-11-23T04:13:29.298Z,39.17
2023-11-23T04:15:34.966Z,39.22
2023-11-23T04:17:40.409Z,39.18
2023-11-23T04:19:45.811Z,39.21
2023-11-23T04:21:51.103Z,39.27
2023-11-23T04:23:56.621Z,39.18
2023-11-23T04:26:02.023Z,39.27
2023-11-23T04:28:08.522Z,39.27
2023-11-23T04:30:14.194Z,39.36
2023-11-23T04:32:19.640Z,39.48
2023-11-23T04:34:25.082Z,39.48
2023-11-23T04:36:30.646Z,39.5
2023-11-23T04:38:36.135Z,39.54
2023-11-23T04:40:41.589Z,39.71
2023-11-23T04:42:46.967Z,39.83
2023-11-23T04:44:52.369Z,39.75
2023-11-23T04:46:57.800Z,39.79
2023-11-23T04:49:03.149Z,39.83
2023-11-23T04:51:08.527Z,39.56
2023-11-23T04:53:14.054Z,39.55
2023-11-23T04:55:19.562Z,39.86
2023-11-23T04:57:25.078Z,39.83
2023-11-23T04:59:30.739Z,39.76
2023-11-23T05:01:36.165Z,39.61
2023-11-23T05:03:41.946Z,39.61
2023-11-23T05:05:47.475Z,39.8
2023-11-23T05:07:52.862Z,39.84
2023-11-23T05:09:58.357Z,40.32
2023-11-23T05:12:03.726Z,40.71
2023-11-23T05:14:09.232Z,40.67
2023-11-23T05:16:14.833Z,41.05
2023-11-23T05:18:20.426Z,41.01
2023-11-23T05:20:25.877Z,41.13
2023-11-23T05:22:31.201Z,40.94
2023-11-23T05:24:36.646Z,40.83
2023-11-23T05:26:41.831Z,40.45
2023-11-23T05:28:47.308Z,40.6
2023-11-23T05:30:52.755Z,40.48
2023-11-23T05:32:58.455Z,40.51
2023-11-23T05:35:04.041Z,40.38
2023-11-23T05:37:09.401Z,40.62
2023-11-23T05:39:14.925Z,40.5
2023-11-23T05:41:20.342Z,40.33
2023-11-23T05:43:26.020Z,40.31
2023-11-23T05:45:31.568Z,40.25
2023-11-23T05:47:37.194Z,40.22
2023-11-23T05:49:42.707Z,40.17
2023-11-23T05:51:48.045Z,40.08
2023-11-23T05:53:53.545Z,40.13
2023-11-23T05:55:59.023Z,40.04
2023-11-23T05:58:04.287Z,39.98
2023-11-23T06:00:09.632Z,39.85
2023-11-23T06:02:15.353Z,39.67
2023-11-23T06:04:21.327Z,39.54
2023-11-23T06:06:26.789Z,39.39
2023-11-23T06:08:32.421Z,39.25
2023-11-23T06:10:37.898Z,39.14
2023-11-23T06:12:43.347Z,39.02
2023-11-23T06:14:49.258Z,38.92
2023-11-23T06:16:54.609Z,38.81
2023-11-23T06:19:05.139Z,38.75
2023-11-23T06:21:10.702Z,38.66
2023-11-23T06:23:16.181Z,38.4
2023-11-23T06:25:22.896Z,38.3
2023-11-23T06:27:29.283Z,38.26
2023-11-23T06:29:34.803Z,38.22
2023-11-23T06:31:40.197Z,38.06
2023-11-23T06:33:45.707Z,38.02
2023-11-23T06:35:51.338Z,37.85
2023-11-23T06:37:56.861Z,37.72
2023-11-23T06:40:02.131Z,37.66
2023-11-23T06:42:07.884Z,37.84
2023-11-23T06:44:13.260Z,37.88
2023-11-23T06:46:18.779Z,38.19
2023-11-23T06:48:24.683Z,38.2
2023-11-23T06:50:30.082Z,38.05
2023-11-23T06:52:35.678Z,37.92
2023-11-23T06:54:41.215Z,38.22
2023-11-23T06:56:46.550Z,37.72
2023-11-23T06:58:52.197Z,37.9
2023-11-23T07:00:57.733Z,37.66
2023-11-23T07:03:03.300Z,37.83
2023-11-23T07:05:08.831Z,37.71
2023-11-23T07:07:14.258Z,37.63
2023-11-23T07:09:19.829Z,37.75
2023-11-23T07:11:25.254Z,37.46
2023-11-23T07:13:30.704Z,37.94
2023-11-23T07:15:36.550Z,37.59
2023-11-23T07:17:42.373Z,37.43
2023-11-23T07:19:47.918Z,37.57
2023-11-23T07:21:53.478Z,37.52
2023-11-23T07:23:59.077Z,37.58
2023-11-23T07:26:04.552Z,37.37
2023-11-23T07:28:09.997Z,37.64
2023-11-23T07:30:15.777Z,37.68
2023-11-23T07:32:21.200Z,37.78
2023-11-23T07:34:26.473Z,37.46
2023-11-23T07:36:32.054Z,37.39
2023-11-23T07:38:37.522Z,37.46
2023-11-23T07:40:42.950Z,37.59
2023-11-23T07:42:48.529Z,37.3
2023-11-23T07:44:54.122Z,36.93
2023-11-23T07:46:59.710Z,36.76
2023-11-23T07:49:05.424Z,36.79
2023-11-23T07:51:10.891Z,37.05
2023-11-23T07:53:17.087Z,36.68
2023-11-23T07:55:23.075Z,36.52
2023-11-23T07:57:28.503Z,36.45
2023-11-23T07:59:34.005Z,36.47
2023-11-23T08:01:39.313Z,36.35
2023-11-23T08:03:45.256Z,36.25
2023-11-23T08:05:51.021Z,36.22
2023-11-23T08:07:56.730Z,36.27
2023-11-23T08:10:02.288Z,36.18
2023-11-23T08:12:07.819Z,36.25
2023-11-23T08:14:13.363Z,36.33
2023-11-23T08:16:19.022Z,36.29
2023-11-23T08:18:47.026Z,36.22
2023-11-23T08:20:55.699Z,36.24
2023-11-23T08:23:01.118Z,36.32
2023-11-23T08:25:06.553Z,36.29
2023-11-23T08:27:12.063Z,36.4
2023-11-23T08:29:17.562Z,36.49
2023-11-23T08:31:23.244Z,36.17
2023-11-23T08:33:28.915Z,36.13
2023-11-23T08:35:34.454Z,36.15
2023-11-23T08:37:40.029Z,35.94
2023-11-23T08:39:45.369Z,36.06
2023-11-23T08:41:51.037Z,36.08
2023-11-23T08:43:56.426Z,36.01
2023-11-23T08:46:01.896Z,36.32
2023-11-23T08:48:07.522Z,35.99
2023-11-23T08:50:12.967Z,36.01
2023-11-23T08:52:18.416Z,35.99
2023-11-23T08:54:24.300Z,35.96
2023-11-23T08:56:29.595Z,36.13
2023-11-23T08:58:35.142Z,36.01
2023-11-23T09:00:40.652Z,36.32
2023-11-23T09:02:46.201Z,35.98
2023-11-23T09:04:53.494Z,36.04
2023-11-23T09:06:59.205Z,35.92
2023-11-23T09:09:04.773Z,35.97
2023-11-23T09:11:10.224Z,36.28
2023-11-23T09:13:15.785Z,36.25
2023-11-23T09:15:25.391Z,35.92
2023-11-23T09:17:30.919Z,35.99
2023-11-23T09:19:36.532Z,36.42
2023-11-23T09:21:42.075Z,36.55
2023-11-23T09:23:47.594Z,36.16
2023-11-23T09:25:53.112Z,35.83
2023-11-23T09:27:58.576Z,35.84
2023-11-23T09:30:04.069Z,36.46
2023-11-23T09:32:09.962Z,35.98
2023-11-23T09:34:15.526Z,36.39
2023-11-23T09:36:21.128Z,35.98
2023-11-23T09:38:26.712Z,36.16
2023-11-23T09:40:32.248Z,36.13
2023-11-23T09:42:37.759Z,36.3
2023-11-23T09:44:43.229Z,36.25
2023-11-23T09:46:48.785Z,35.86
2023-11-23T09:48:54.292Z,35.74
2023-11-23T09:50:59.816Z,35.97
2023-11-23T09:53:05.243Z,36.32
2023-11-23T09:55:10.745Z,35.78
2023-11-23T09:57:16.091Z,36.05
2023-11-23T09:59:21.546Z,35.94
2023-11-23T10:01:26.953Z,36.26
2023-11-23T10:03:32.684Z,35.69
2023-11-23T10:05:38.254Z,36.12
2023-11-23T10:07:43.791Z,36.18
2023-11-23T10:09:49.088Z,35.79
2023-11-23T10:11:54.533Z,36.03
2023-11-23T10:13:59.840Z,35.94
2023-11-23T10:16:05.305Z,36.18
2023-11-23T10:18:10.991Z,36.03
2023-11-23T10:20:17.051Z,36.08
2023-11-23T10:22:22.638Z,36.15
2023-11-23T10:24:28.193Z,35.88
2023-11-23T10:26:33.659Z,35.73
2023-11-23T10:28:39.098Z,35.9
2023-11-23T10:30:44.544Z,35.82
2023-11-23T10:32:49.976Z,36.11
2023-11-23T10:34:55.667Z,36.13
2023-11-23T10:37:01.183Z,36.1
2023-11-23T10:39:06.836Z,36.11
2023-11-23T10:41:12.223Z,36.09
2023-11-23T10:43:17.645Z,35.97
2023-11-23T10:45:23.388Z,36.04
2023-11-23T10:47:29.076Z,35.99
2023-11-23T10:49:34.433Z,35.83
2023-11-23T10:51:40.304Z,33.99
2023-11-23T10:53:45.940Z,34.18
2023-11-23T10:55:51.574Z,34.89
2023-11-23T10:57:56.952Z,35.19
2023-11-23T11:00:02.316Z,35.59
2023-11-23T11:02:07.942Z,35.89
2023-11-23T11:04:13.740Z,35.4
2023-11-23T11:06:19.356Z,36.08
2023-11-23T11:08:24.990Z,35.63
2023-11-23T11:10:30.378Z,35.76
2023-11-23T11:12:35.912Z,35.9
2023-11-23T11:14:41.318Z,36.05
2023-11-23T11:16:46.765Z,35.94
2023-11-23T11:18:52.463Z,36
2023-11-23T11:20:58.100Z,35.76
2023-11-23T11:23:03.638Z,35.77
2023-11-23T11:25:09.180Z,35.82
2023-11-23T11:27:14.870Z,35.92
2023-11-23T11:29:20.522Z,35.84
2023-11-23T11:31:26.230Z,35.92
2023-11-23T11:33:31.856Z,35.61
2023-11-23T11:35:37.389Z,35.77
2023-11-23T11:37:43.565Z,35.83
2023-11-23T11:39:49.396Z,35.8
2023-11-23T11:41:54.842Z,35.8
2023-11-23T11:44:00.388Z,35.66
2023-11-23T11:46:05.937Z,35.53
2023-11-23T11:48:11.591Z,35.73
2023-11-23T11:50:16.998Z,34.13
2023-11-23T11:52:22.657Z,34.07
2023-11-23T11:54:28.134Z,34.74
2023-11-23T11:56:33.651Z,35.07
2023-11-23T11:58:39.334Z,35.25
2023-11-23T12:00:44.941Z,35.24
2023-11-23T12:02:50.700Z,35.35
2023-11-23T12:04:56.156Z,35.53
2023-11-23T12:07:02.110Z,35.14
2023-11-23T12:09:07.538Z,35.12
2023-11-23T12:11:12.813Z,35.24
2023-11-23T12:13:18.136Z,35.53
2023-11-23T12:15:23.483Z,35.51
2023-11-23T12:17:28.956Z,35.35
2023-11-23T12:19:34.323Z,35.56
2023-11-23T12:21:39.662Z,35.5
2023-11-23T12:23:45.115Z,35.43
2023-11-23T12:25:50.473Z,35.52
2023-11-23T12:27:55.928Z,35.14
2023-11-23T12:30:01.295Z,35.62
2023-11-23T12:32:06.734Z,35.17
2023-11-23T12:34:12.094Z,35.59
2023-11-23T12:36:17.512Z,35.65
2023-11-23T12:38:22.893Z,35.58
2023-11-23T12:40:28.268Z,35.52
2023-11-23T12:42:33.785Z,35.41
2023-11-23T12:44:39.585Z,35.69
2023-11-23T12:46:45.292Z,35.54
2023-11-23T12:48:51.038Z,35.65
2023-11-23T12:50:56.606Z,35.74
2023-11-23T12:53:01.951Z,35.8
2023-11-23T12:55:07.296Z,35.92
2023-11-23T12:57:12.702Z,35.97
2023-11-23T12:59:18.163Z,36.05
2023-11-23T13:01:23.804Z,36.18
2023-11-23T13:03:29.394Z,34.42
2023-11-23T13:05:35.008Z,34.33
2023-11-23T13:07:40.649Z,35.35
2023-11-23T13:09:46.216Z,37.29
2023-11-23T13:11:51.720Z,36.63
2023-11-23T13:13:57.166Z,35.72
2023-11-23T13:16:02.612Z,33.17
2023-11-23T13:18:10.670Z,33.59
2023-11-23T13:20:16.777Z,34.64
2023-11-23T13:22:22.423Z,36.16
2023-11-23T13:24:28.170Z,36.18
2023-11-23T13:26:33.567Z,36.45
2023-11-23T13:28:39.134Z,36.57
2023-11-23T13:30:44.631Z,36.68
2023-11-23T13:32:50.436Z,36.6
2023-11-23T13:34:55.969Z,36.33
2023-11-23T13:37:01.381Z,37.18
2023-11-23T13:39:09.909Z,37.08
2023-11-23T13:41:16.497Z,36.76
2023-11-23T13:43:21.940Z,36.71
2023-11-23T13:45:27.799Z,36.98
2023-11-23T13:47:33.332Z,36.9
2023-11-23T13:49:38.865Z,36.88
2023-11-23T13:51:44.534Z,36.88
2023-11-23T13:53:50.053Z,36.74
2023-11-23T13:55:55.447Z,36.86
2023-11-23T13:58:00.834Z,36.98
2023-11-23T14:00:06.307Z,36.99
2023-11-23T14:02:12.105Z,36.93
2023-11-23T14:04:17.783Z,36.98
2023-11-23T14:06:23.381Z,36.89
2023-11-23T14:08:29.055Z,37.2
2023-11-23T14:10:34.427Z,36.92
2023-11-23T14:12:40.023Z,36.98
2023-11-23T14:14:45.474Z,37.02
2023-11-23T14:16:51.117Z,37.03
2023-11-23T14:18:56.666Z,36.96
2023-11-23T14:21:02.105Z,37.11
2023-11-23T14:23:07.493Z,37.21
2023-11-23T14:25:12.896Z,37.12
2023-11-23T14:27:18.675Z,37.11
2023-11-23T14:29:24.179Z,37.06
2023-11-23T14:31:30.054Z,36.97
2023-11-23T14:33:35.561Z,37
2023-11-23T14:35:41.111Z,36.96
2023-11-23T14:37:46.428Z,36.9
2023-11-23T14:39:51.792Z,36.89
2023-11-23T14:41:57.335Z,36.9
2023-11-23T14:44:02.718Z,36.92
2023-11-23T14:46:10.792Z,36.98
2023-11-23T14:48:16.288Z,36.99
2023-11-23T14:50:21.912Z,36.87
2023-11-23T14:52:27.185Z,36.8
2023-11-23T14:54:40.445Z,36.78
2023-11-23T14:56:45.788Z,36.95
2023-11-23T14:58:51.193Z,36.88
2023-11-23T15:00:56.483Z,36.86
2023-11-23T15:03:01.848Z,36.85
2023-11-23T15:05:07.149Z,36.87
2023-11-23T15:07:12.541Z,36.84
2023-11-23T15:09:17.848Z,36.98
2023-11-23T15:11:23.340Z,34.78
2023-11-23T15:13:40.361Z,35.18
2023-11-23T15:15:45.935Z,35.69
2023-11-23T15:17:52.400Z,35.87
2023-11-23T15:19:57.896Z,35.96
2023-11-23T15:22:03.199Z,35.99
2023-11-23T15:24:08.680Z,35.94
2023-11-23T15:26:14.041Z,36.07
2023-11-23T15:28:19.556Z,35.98
2023-11-23T15:30:25.141Z,36.21
2023-11-23T15:32:30.779Z,36.14
2023-11-23T15:34:36.349Z,35.9
2023-11-23T15:36:42.058Z,36.07
2023-11-23T15:38:47.882Z,35.95
2023-11-23T15:40:53.427Z,35.84
2023-11-23T15:42:58.958Z,36.07
2023-11-23T15:45:04.427Z,35.94
2023-11-23T15:47:09.880Z,35.98
2023-11-23T15:49:15.408Z,35.91
2023-11-23T15:51:20.987Z,36.1
2023-11-23T15:53:26.408Z,36.03
2023-11-23T15:55:31.807Z,36.15
2023-11-23T15:57:37.286Z,35.98
2023-11-23T15:59:42.697Z,36.11
2023-11-23T16:01:48.236Z,36.21
2023-11-23T16:03:53.916Z,36.23
2023-11-23T16:05:59.635Z,36.23
2023-11-23T16:08:05.339Z,36.22
2023-11-23T16:10:11.086Z,36.17
2023-11-23T16:12:16.881Z,36.24
2023-11-23T16:14:22.288Z,36.24
2023-11-23T16:16:27.847Z,36.18
2023-11-23T16:18:33.465Z,36.21
2023-11-23T16:20:39.008Z,36.29
2023-11-23T16:22:44.351Z,36.17
2023-11-23T16:24:49.863Z,36.31
2023-11-23T16:26:55.303Z,36.06
2023-11-23T16:29:00.830Z,36.16
2023-11-23T16:31:06.487Z,36.04
2023-11-23T16:33:12.194Z,36.23
2023-11-23T16:35:17.519Z,35.73
2023-11-23T16:37:23.044Z,35.64
2023-11-23T16:39:28.549Z,36.13
2023-11-23T16:41:34.008Z,36.22
2023-11-23T16:43:39.548Z,34.94
2023-11-23T16:45:45.000Z,34.6
2023-11-23T16:47:54.565Z,35.36
2023-11-23T16:50:00.285Z,35.41
2023-11-23T16:52:05.859Z,35.72
2023-11-23T16:54:11.115Z,35.84
2023-11-23T16:56:16.523Z,36.04
2023-11-23T16:58:22.137Z,36.2
2023-11-23T17:00:27.803Z,36.3
2023-11-23T17:02:33.590Z,36.17
2023-11-23T17:04:39.069Z,36.25
2023-11-23T17:06:44.531Z,36.29
2023-11-23T17:08:49.740Z,36.27
2023-11-23T17:10:55.088Z,36.2
2023-11-23T17:13:00.623Z,36.26
2023-11-23T17:15:05.974Z,36.19
2023-11-23T17:17:11.479Z,36.18
2023-11-23T17:19:17.150Z,36.17
2023-11-23T17:21:22.454Z,36.09
2023-11-23T17:23:27.794Z,35.76
2023-11-23T17:25:33.165Z,35.96
2023-11-23T17:27:38.630Z,35.79
2023-11-23T17:29:43.943Z,35.81
2023-11-23T17:31:49.405Z,35.85
2023-11-23T17:33:54.959Z,35.9
2023-11-23T17:36:00.475Z,35.96
2023-11-23T17:38:05.861Z,36.03
2023-11-23T17:40:11.245Z,36.07
2023-11-23T17:42:16.839Z,36.22
2023-11-23T17:44:22.168Z,36.2
2023-11-23T17:46:27.632Z,36.19
2023-11-23T17:48:33.131Z,36.23
2023-11-23T17:50:42.329Z,36.3
2023-11-23T17:52:47.775Z,36.37
2023-11-23T17:54:53.320Z,36.4
2023-11-23T17:56:58.627Z,36.32
2023-11-23T17:59:38.832Z,36.36
2023-11-23T18:01:52.490Z,36.38
2023-11-23T18:03:58.209Z,36.41
2023-11-23T18:06:03.738Z,36.37
2023-11-23T18:08:09.291Z,36.39
2023-11-23T18:10:15.047Z,36.53
2023-11-23T18:12:20.555Z,36.49
2023-11-23T18:14:25.995Z,36.56
2023-11-23T18:16:31.680Z,36.28
2023-11-23T18:18:37.222Z,36.49
2023-11-23T18:20:42.476Z,36.4
2023-11-23T18:22:47.909Z,35.7
2023-11-23T18:24:53.194Z,35.17
2023-11-23T18:26:58.558Z,35.6
2023-11-23T18:29:03.861Z,36.33
2023-11-23T18:31:13.570Z,36.42
2023-11-23T18:33:19.092Z,36.39
2023-11-23T18:35:24.719Z,36.6
2023-11-23T18:37:30.232Z,36.6
2023-11-23T18:39:36.043Z,36.53
2023-11-23T18:41:41.487Z,36.52
2023-11-23T18:43:47.011Z,36.6
2023-11-23T18:45:53.584Z,36.57
2023-11-23T18:47:59.334Z,36.58
2023-11-23T18:50:04.714Z,36.55
2023-11-23T18:52:11.190Z,36.54
2023-11-23T18:54:16.552Z,36.57
2023-11-23T18:56:21.928Z,36.57
2023-11-23T18:58:27.356Z,36.58
2023-11-23T19:00:32.922Z,36.57
2023-11-23T19:02:38.831Z,36.54
2023-11-23T19:04:44.385Z,36.49
2023-11-23T19:06:51.597Z,36.45
2023-11-23T19:08:59.831Z,36.41
2023-11-23T19:11:05.412Z,36.44
2023-11-23T19:13:10.967Z,36.5
2023-11-23T19:15:16.653Z,36.31
2023-11-23T19:17:21.947Z,35.37
2023-11-23T19:19:27.333Z,36.04
2023-11-23T19:21:33.052Z,36.27
2023-11-23T19:23:38.400Z,36.3
2023-11-23T19:25:43.780Z,36.4
2023-11-23T19:27:49.159Z,36.43
2023-11-23T19:29:54.660Z,36.43
2023-11-23T19:32:00.123Z,36.38
2023-11-23T19:34:05.979Z,36.47
2023-11-23T19:36:11.446Z,36.5
2023-11-23T19:38:16.797Z,36.58
2023-11-23T19:40:22.419Z,36.58
2023-11-23T19:42:27.792Z,36.52
2023-11-23T19:44:33.388Z,36.29
2023-11-23T19:46:38.991Z,36.39
2023-11-23T19:48:44.538Z,35.95
2023-11-23T19:50:49.925Z,36.1
2023-11-23T19:52:55.274Z,36.36
2023-11-23T19:55:00.612Z,36.31
2023-11-23T19:57:06.006Z,36.37
2023-11-23T19:59:11.330Z,36.3
2023-11-23T20:01:17.109Z,36.39
2023-11-23T20:03:22.526Z,36.43
2023-11-23T20:05:27.960Z,36.35
2023-11-23T20:07:33.344Z,36.44
2023-11-23T20:09:38.982Z,36.48
2023-11-23T20:11:44.733Z,36.16
2023-11-23T20:13:50.151Z,36.44
2023-11-23T20:15:55.930Z,36.59
2023-11-23T20:18:01.589Z,36.75
2023-11-23T20:20:07.221Z,36.83
2023-11-23T20:22:12.757Z,36.72
2023-11-23T20:24:18.240Z,35.47
2023-11-23T20:26:23.638Z,35.9
2023-11-23T20:28:28.977Z,36.55
2023-11-23T20:30:34.538Z,36.75
2023-11-23T20:32:40.189Z,36.93
2023-11-23T20:34:45.835Z,37.03
2023-11-23T20:36:51.371Z,37.13
2023-11-23T20:38:56.901Z,37.19
2023-11-23T20:41:02.262Z,36.97
2023-11-23T20:43:07.690Z,37.05
2023-11-23T20:45:13.470Z,37.06
2023-11-23T20:47:18.763Z,37.06
2023-11-23T20:49:25.420Z,37.1
2023-11-23T20:51:30.769Z,37.13
2023-11-23T20:53:36.416Z,37.07
2023-11-23T20:55:41.755Z,37.15
2023-11-23T20:57:47.618Z,37.49
2023-11-23T20:59:53.050Z,36.03
2023-11-23T21:01:59.043Z,36.54
2023-11-23T21:04:05.198Z,36.91
2023-11-23T21:06:10.694Z,37.13
2023-11-23T21:08:16.144Z,36.25
2023-11-23T21:10:21.717Z,36.89
2023-11-23T21:12:30.769Z,36.98
2023-11-23T21:14:36.097Z,37.2
2023-11-23T21:16:41.491Z,37.25
2023-11-23T21:18:47.324Z,35.74
2023-11-23T21:20:52.657Z,36.81
2023-11-23T21:22:58.021Z,37.57
2023-11-23T21:25:03.456Z,37.85
2023-11-23T21:27:08.840Z,37.92
2023-11-23T21:29:14.268Z,37.6
2023-11-23T21:31:19.886Z,37.91
2023-11-23T21:33:25.496Z,38.05
2023-11-23T21:35:30.981Z,37.96
2023-11-23T21:37:36.310Z,38.31
2023-11-23T21:39:41.909Z,38
2023-11-23T21:41:52.103Z,37.37
2023-11-23T21:43:57.549Z,37.69
2023-11-23T21:46:03.126Z,38.07
2023-11-23T21:48:08.809Z,38.2
2023-11-23T21:50:14.405Z,38.2
2023-11-23T21:52:19.926Z,38.51
2023-11-23T21:54:25.335Z,38.67
2023-11-23T21:56:30.793Z,38.86
2023-11-23T21:58:36.209Z,38.75
2023-11-23T22:00:41.706Z,38.78
2023-11-23T22:02:47.409Z,38.7
2023-11-23T22:04:52.861Z,39
2023-11-23T22:06:58.232Z,38.4
2023-11-23T22:09:03.653Z,38.03
2023-11-23T22:11:13.897Z,37.93
2023-11-23T22:13:19.539Z,38.1
2023-11-23T22:15:25.690Z,38.38
2023-11-23T22:17:31.090Z,38.46
2023-11-23T22:19:36.516Z,38.51
2023-11-23T22:21:41.859Z,38.73
2023-11-23T22:23:47.474Z,38.23
2023-11-23T22:25:52.925Z,38.39
2023-11-23T22:27:58.564Z,38.32
2023-11-23T22:30:03.956Z,38.46
2023-11-23T22:32:09.425Z,38.49
2023-11-23T22:34:14.872Z,38.72
2023-11-23T22:36:20.294Z,38.43
2023-11-23T22:38:25.657Z,38.8
2023-11-23T22:40:31.019Z,38.55
2023-11-23T22:42:36.560Z,39.1
2023-11-23T22:44:42.092Z,38.42
2023-11-23T22:46:47.513Z,39.04
2023-11-23T22:48:52.951Z,38.99
2023-11-23T22:50:58.416Z,38.59
2023-11-23T22:53:03.763Z,39.14
2023-11-23T22:55:09.123Z,39.11
2023-11-23T22:57:14.412Z,38.67
2023-11-23T22:59:19.860Z,38.92
2023-11-23T23:01:25.354Z,38.95
2023-11-23T23:03:31.021Z,39.5
2023-11-23T23:05:36.600Z,39.29
2023-11-23T23:07:41.942Z,39.28
2023-11-23T23:09:47.543Z,39.24
2023-11-23T23:11:53.045Z,39.72
2023-11-23T23:13:58.393Z,40.11
2023-11-23T23:16:03.929Z,41.78
2023-11-23T23:18:09.372Z,41.73
2023-11-23T23:20:14.927Z,40.95
2023-11-23T23:22:30.871Z,40.27
2023-11-23T23:24:36.436Z,37.92
2023-11-23T23:26:41.958Z,37.45
2023-11-23T23:28:47.403Z,36.74
2023-11-23T23:30:52.995Z,36.73
2023-11-23T23:32:58.570Z,36.45
2023-11-23T23:35:04.003Z,36.5
2023-11-23T23:37:09.679Z,35.78
2023-11-23T23:39:15.324Z,36.11
2023-11-23T23:41:20.769Z,35.62
2023-11-23T23:43:26.252Z,34.97
2023-11-23T23:45:31.889Z,35.33
2023-11-23T23:47:37.296Z,34.58
2023-11-23T23:49:42.636Z,34.25
2023-11-23T23:51:48.185Z,33.96
2023-11-23T23:53:53.612Z,34.28
2023-11-23T23:55:58.855Z,33.63
2023-11-23T23:58:07.633Z,34.77
